createdAt,value
2018-11-21T00:00:26.141Z,3.47
2018-11-21T00:01:06.696Z,3.51
2018-11-21T00:01:47.241Z,3.5
2018-11-21T00:02:27.793Z,3.48
2018-11-21T00:03:08.367Z,3.48
2018-11-21T00:03:48.893Z,3.51
2018-11-21T00:04:29.469Z,3.51
2018-11-21T00:05:10.052Z,3.56
2018-11-21T00:05:50.622Z,3.51
2018-11-21T00:06:31.199Z,3.47
2018-11-21T00:07:11.871Z,3.53
2018-11-21T00:07:52.430Z,3.55
2018-11-21T00:08:33.032Z,3.51
2018-11-21T00:09:13.596Z,3.53
2018-11-21T00:09:54.151Z,3.5
2018-11-21T00:10:34.806Z,3.47
2018-11-21T00:11:15.370Z,3.42
2018-11-21T00:11:55.943Z,3.47
2018-11-21T00:12:36.497Z,3.51
2018-11-21T00:13:17.086Z,3.48
2018-11-21T00:13:57.660Z,3.44
2018-11-21T00:14:38.215Z,3.44
2018-11-21T00:15:18.794Z,3.47
2018-11-21T00:15:59.367Z,3.42
2018-11-21T00:16:39.896Z,3.4
2018-11-21T00:17:20.448Z,3.4
2018-11-21T00:18:01.022Z,3.4
2018-11-21T00:18:41.622Z,3.36
2018-11-21T00:19:22.176Z,3.44
2018-11-21T00:20:02.721Z,3.4
2018-11-21T00:20:43.290Z,3.42
2018-11-21T00:21:23.901Z,3.44
2018-11-21T00:22:04.448Z,3.44
2018-11-21T00:22:44.993Z,3.41
2018-11-21T00:23:25.558Z,3.47
2018-11-21T00:24:06.099Z,3.45
2018-11-21T00:24:46.671Z,3.47
2018-11-21T00:25:27.238Z,3.55
2018-11-21T00:26:07.792Z,3.48
2018-11-21T00:26:48.362Z,3.5
2018-11-21T00:27:29.017Z,3.56
2018-11-21T00:28:09.589Z,3.53
2018-11-21T00:28:50.221Z,3.48
2018-11-21T00:29:30.836Z,3.42
2018-11-21T00:30:11.401Z,3.48
2018-11-21T00:30:51.963Z,3.48
2018-11-21T00:31:32.575Z,3.44
2018-11-21T00:32:13.180Z,3.41
2018-11-21T00:32:53.698Z,3.4
2018-11-21T00:33:34.259Z,3.34
2018-11-21T00:34:14.810Z,3.36
2018-11-21T00:34:55.380Z,3.37
2018-11-21T00:35:35.959Z,3.36
2018-11-21T00:36:16.620Z,3.34
2018-11-21T00:36:57.163Z,3.36
2018-11-21T00:37:37.712Z,3.34
2018-11-21T00:38:18.292Z,3.44
2018-11-21T00:38:58.855Z,3.42
2018-11-21T00:39:39.478Z,3.34
2018-11-21T00:40:20.033Z,3.36
2018-11-21T00:41:00.599Z,3.34
2018-11-21T00:41:41.167Z,3.37
2018-11-21T00:42:21.742Z,3.4
2018-11-21T00:43:02.288Z,3.44
2018-11-21T00:43:42.876Z,3.36
2018-11-21T00:44:23.451Z,3.41
2018-11-21T00:45:04.003Z,3.34
2018-11-21T00:45:44.623Z,3.47
2018-11-21T00:46:25.144Z,3.36
2018-11-21T00:47:05.737Z,3.42
2018-11-21T00:47:46.286Z,3.37
2018-11-21T00:48:26.845Z,3.36
2018-11-21T00:49:07.415Z,3.36
2018-11-21T00:49:47.986Z,3.42
2018-11-21T00:50:28.945Z,3.44
2018-11-21T00:51:09.523Z,3.42
2018-11-21T00:51:50.126Z,3.4
2018-11-21T00:52:30.684Z,3.4
2018-11-21T00:53:11.266Z,3.37
2018-11-21T00:53:51.855Z,3.41
2018-11-21T00:54:32.435Z,3.34
2018-11-21T00:55:13.173Z,3.34
2018-11-21T00:55:53.791Z,3.44
2018-11-21T00:56:35.293Z,3.36
2018-11-21T00:57:15.897Z,3.41
2018-11-21T00:57:56.441Z,3.29
2018-11-21T00:58:36.986Z,3.36
2018-11-21T00:59:17.537Z,3.37
2018-11-21T00:59:58.091Z,3.32
2018-11-21T01:00:38.646Z,3.31
2018-11-21T01:01:19.200Z,3.31
2018-11-21T01:01:59.759Z,3.29
2018-11-21T01:02:40.334Z,3.36
2018-11-21T01:03:20.892Z,3.32
2018-11-21T01:04:01.453Z,3.37
2018-11-21T01:04:42.023Z,3.34
2018-11-21T01:05:22.586Z,3.36
2018-11-21T01:06:03.148Z,3.41
2018-11-21T01:06:43.723Z,3.36
2018-11-21T01:07:24.287Z,3.4
2018-11-21T01:08:04.836Z,3.42
2018-11-21T01:08:45.422Z,3.44
2018-11-21T01:09:25.981Z,3.42
2018-11-21T01:10:06.580Z,3.4
2018-11-21T01:10:47.187Z,3.34
2018-11-21T01:11:27.748Z,3.4
2018-11-21T01:12:09.265Z,3.41
2018-11-21T01:12:49.828Z,3.45
2018-11-21T01:13:30.366Z,3.4
2018-11-21T01:14:10.971Z,3.37
2018-11-21T01:14:51.529Z,3.37
2018-11-21T01:15:32.090Z,3.41
2018-11-21T01:16:12.664Z,3.32
2018-11-21T01:16:53.209Z,3.42
2018-11-21T01:17:33.754Z,3.37
2018-11-21T01:18:14.338Z,3.42
2018-11-21T01:18:54.913Z,3.4
2018-11-21T01:19:35.488Z,3.37
2018-11-21T01:20:16.056Z,3.37
2018-11-21T01:20:56.614Z,3.47
2018-11-21T01:21:37.210Z,3.41
2018-11-21T01:22:17.766Z,3.48
2018-11-21T01:22:58.317Z,3.5
2018-11-21T01:23:38.885Z,3.51
2018-11-21T01:24:19.471Z,3.51
2018-11-21T01:25:00.024Z,3.44
2018-11-21T01:25:40.591Z,3.42
2018-11-21T01:26:21.143Z,3.47
2018-11-21T01:27:01.691Z,3.44
2018-11-21T01:27:42.247Z,3.4
2018-11-21T01:28:22.840Z,3.45
2018-11-21T01:29:03.429Z,3.47
2018-11-21T01:29:43.999Z,3.42
2018-11-21T01:30:24.559Z,3.45
2018-11-21T01:31:05.108Z,3.41
2018-11-21T01:31:45.674Z,3.47
2018-11-21T01:32:26.231Z,3.47
2018-11-21T01:33:09.648Z,3.44
2018-11-21T01:33:47.448Z,3.4
2018-11-21T01:34:28.012Z,3.4
2018-11-21T01:35:08.608Z,3.41
2018-11-21T01:35:49.171Z,3.4
2018-11-21T01:36:29.756Z,3.42
2018-11-21T01:37:10.325Z,3.31
2018-11-21T01:37:50.905Z,3.36
2018-11-21T01:38:31.569Z,3.28
2018-11-21T01:39:12.152Z,3.37
2018-11-21T01:39:52.732Z,3.34
2018-11-21T01:40:33.311Z,3.4
2018-11-21T01:41:13.864Z,3.31
2018-11-21T01:41:54.459Z,3.4
2018-11-21T01:42:35.008Z,3.28
2018-11-21T01:43:15.579Z,3.34
2018-11-21T01:43:56.138Z,3.29
2018-11-21T01:44:36.795Z,3.34
2018-11-21T01:45:17.353Z,3.26
2018-11-21T01:45:57.912Z,3.29
2018-11-21T01:46:38.526Z,3.36
2018-11-21T01:47:19.087Z,3.36
2018-11-21T01:47:59.663Z,3.29
2018-11-21T01:48:40.219Z,3.42
2018-11-21T01:49:20.780Z,3.29
2018-11-21T01:50:01.350Z,3.32
2018-11-21T01:50:41.893Z,3.32
2018-11-21T01:51:22.446Z,3.34
2018-11-21T01:52:03.006Z,3.28
2018-11-21T01:52:43.573Z,3.34
2018-11-21T01:53:24.120Z,3.26
2018-11-21T01:54:04.675Z,3.29
2018-11-21T01:54:45.282Z,3.29
2018-11-21T01:55:25.847Z,3.37
2018-11-21T01:56:06.413Z,3.31
2018-11-21T01:56:46.972Z,3.36
2018-11-21T01:57:27.515Z,3.32
2018-11-21T01:58:08.079Z,3.37
2018-11-21T01:58:48.625Z,3.32
2018-11-21T01:59:29.187Z,3.28
2018-11-21T02:00:09.752Z,3.34
2018-11-21T02:00:50.303Z,3.26
2018-11-21T02:01:30.957Z,3.4
2018-11-21T02:02:11.505Z,3.31
2018-11-21T02:02:52.062Z,3.25
2018-11-21T02:03:32.601Z,3.29
2018-11-21T02:04:13.154Z,3.34
2018-11-21T02:04:53.729Z,3.28
2018-11-21T02:05:34.314Z,3.26
2018-11-21T02:06:14.886Z,3.25
2018-11-21T02:06:55.440Z,3.25
2018-11-21T02:07:36.006Z,3.22
2018-11-21T02:08:16.561Z,3.29
2018-11-21T02:08:57.153Z,3.23
2018-11-21T02:09:37.703Z,3.22
2018-11-21T02:10:18.292Z,3.21
2018-11-21T02:10:58.810Z,3.25
2018-11-21T02:11:39.378Z,3.25
2018-11-21T02:12:19.952Z,3.22
2018-11-21T02:13:00.506Z,3.29
2018-11-21T02:13:41.070Z,3.25
2018-11-21T02:14:21.623Z,3.23
2018-11-21T02:15:02.196Z,3.16
2018-11-21T02:15:42.821Z,3.19
2018-11-21T02:16:23.367Z,3.23
2018-11-21T02:17:03.917Z,3.21
2018-11-21T02:17:44.471Z,3.22
2018-11-21T02:18:25.056Z,3.19
2018-11-21T02:19:05.617Z,3.25
2018-11-21T02:19:46.213Z,3.23
2018-11-21T02:20:26.788Z,3.26
2018-11-21T02:21:07.357Z,3.29
2018-11-21T02:21:47.939Z,3.25
2018-11-21T02:22:28.518Z,3.26
2018-11-21T02:23:09.083Z,3.31
2018-11-21T02:23:49.662Z,3.28
2018-11-21T02:24:30.254Z,3.28
2018-11-21T02:25:10.819Z,3.29
2018-11-21T02:25:51.375Z,3.32
2018-11-21T02:26:31.976Z,3.4
2018-11-21T02:27:12.541Z,3.29
2018-11-21T02:27:53.078Z,3.31
2018-11-21T02:28:33.696Z,3.29
2018-11-21T02:29:14.292Z,3.26
2018-11-21T02:29:54.859Z,3.36
2018-11-21T02:30:35.418Z,3.36
2018-11-21T02:31:15.966Z,3.36
2018-11-21T02:31:56.537Z,3.32
2018-11-21T02:32:37.081Z,3.37
2018-11-21T02:33:17.638Z,3.34
2018-11-21T02:33:58.196Z,3.4
2018-11-21T02:34:38.749Z,3.37
2018-11-21T02:35:19.356Z,3.34
2018-11-21T02:35:59.931Z,3.29
2018-11-21T02:36:40.507Z,3.31
2018-11-21T02:37:21.046Z,3.29
2018-11-21T02:38:01.611Z,3.29
2018-11-21T02:38:42.187Z,3.29
2018-11-21T02:39:22.750Z,3.34
2018-11-21T02:40:03.352Z,3.26
2018-11-21T02:40:43.897Z,3.25
2018-11-21T02:41:24.445Z,3.25
2018-11-21T02:42:05.032Z,3.31
2018-11-21T02:42:45.557Z,3.22
2018-11-21T02:43:26.123Z,3.23
2018-11-21T02:44:06.712Z,3.23
2018-11-21T02:44:47.307Z,3.36
2018-11-21T02:45:27.884Z,3.26
2018-11-21T02:46:08.457Z,3.23
2018-11-21T02:46:49.021Z,3.28
2018-11-21T02:47:29.616Z,3.23
2018-11-21T02:48:10.150Z,3.29
2018-11-21T02:48:50.705Z,3.26
2018-11-21T02:49:31.255Z,3.25
2018-11-21T02:50:11.865Z,3.25
2018-11-21T02:50:52.412Z,3.25
2018-11-21T02:51:32.973Z,3.23
2018-11-21T02:52:13.548Z,3.22
2018-11-21T02:52:54.168Z,3.19
2018-11-21T02:53:34.718Z,3.13
2018-11-21T02:54:15.300Z,3.19
2018-11-21T02:54:55.839Z,3.14
2018-11-21T02:55:36.389Z,3.18
2018-11-21T02:56:16.944Z,3.16
2018-11-21T02:56:57.493Z,3.19
2018-11-21T02:57:38.054Z,3.21
2018-11-21T02:58:18.646Z,3.16
2018-11-21T02:58:59.169Z,3.19
2018-11-21T02:59:39.763Z,3.19
2018-11-21T03:00:20.337Z,3.1
2018-11-21T03:01:00.909Z,3.14
2018-11-21T03:01:41.473Z,3.14
2018-11-21T03:02:22.076Z,3.14
2018-11-21T03:03:02.643Z,3.16
2018-11-21T03:03:43.231Z,3.13
2018-11-21T03:04:23.777Z,3.22
2018-11-21T03:05:04.324Z,3.18
2018-11-21T03:05:44.881Z,3.14
2018-11-21T03:06:25.439Z,3.22
2018-11-21T03:07:05.977Z,3.07
2018-11-21T03:07:46.531Z,3.18
2018-11-21T03:08:27.107Z,3.08
2018-11-21T03:09:07.693Z,3.14
2018-11-21T03:09:48.271Z,3.18
2018-11-21T03:10:28.807Z,3.21
2018-11-21T03:11:09.363Z,3.16
2018-11-21T03:11:49.919Z,3.07
2018-11-21T03:12:30.472Z,3.18
2018-11-21T03:13:11.045Z,3.18
2018-11-21T03:13:51.603Z,3.18
2018-11-21T03:14:32.188Z,3.14
2018-11-21T03:15:12.756Z,3.16
2018-11-21T03:15:53.330Z,3.13
2018-11-21T03:16:33.909Z,3.1
2018-11-21T03:17:14.449Z,3.1
2018-11-21T03:17:55.019Z,3.11
2018-11-21T03:18:35.600Z,3.05
2018-11-21T03:19:16.189Z,3.08
2018-11-21T03:19:56.743Z,3.04
2018-11-21T03:20:37.350Z,3.04
2018-11-21T03:21:17.903Z,3.16
2018-11-21T03:21:58.484Z,3.04
2018-11-21T03:22:39.024Z,3.18
2018-11-21T03:23:19.581Z,3.07
2018-11-21T03:24:00.131Z,3.1
2018-11-21T03:24:40.712Z,3.05
2018-11-21T03:25:21.253Z,3.03
2018-11-21T03:26:01.806Z,3.14
2018-11-21T03:26:42.357Z,3.08
2018-11-21T03:27:22.912Z,3.05
2018-11-21T03:28:03.461Z,3.03
2018-11-21T03:28:44.031Z,3.05
2018-11-21T03:29:24.596Z,3.03
2018-11-21T03:30:05.147Z,3.03
2018-11-21T03:30:45.705Z,3.05
2018-11-21T03:31:26.253Z,3.01
2018-11-21T03:32:06.812Z,3
2018-11-21T03:32:47.414Z,3.04
2018-11-21T03:33:27.963Z,3.1
2018-11-21T03:34:08.513Z,3.03
2018-11-21T03:34:49.155Z,3
2018-11-21T03:35:29.717Z,3.07
2018-11-21T03:36:10.305Z,2.98
2018-11-21T03:36:50.858Z,3
2018-11-21T03:37:31.418Z,2.97
2018-11-21T03:38:11.989Z,2.97
2018-11-21T03:38:52.549Z,2.85
2018-11-21T03:39:33.132Z,2.95
2018-11-21T03:40:13.705Z,2.87
2018-11-21T03:40:54.258Z,2.89
2018-11-21T03:41:34.840Z,2.95
2018-11-21T03:42:15.440Z,2.98
2018-11-21T03:42:55.995Z,3.01
2018-11-21T03:43:36.588Z,2.95
2018-11-21T03:44:17.145Z,3.04
2018-11-21T03:44:57.701Z,2.97
2018-11-21T03:45:38.264Z,3.07
2018-11-21T03:46:18.852Z,3.03
2018-11-21T03:46:59.401Z,2.97
2018-11-21T03:47:39.961Z,3.05
2018-11-21T03:48:20.552Z,3.05
2018-11-21T03:49:01.126Z,3.04
2018-11-21T03:49:41.701Z,3.01
2018-11-21T03:50:22.268Z,3.1
2018-11-21T03:51:02.827Z,3.13
2018-11-21T03:51:43.373Z,3.13
2018-11-21T03:52:23.940Z,3.05
2018-11-21T03:53:04.512Z,3.11
2018-11-21T03:53:45.082Z,3.04
2018-11-21T03:54:25.640Z,3.08
2018-11-21T03:55:06.197Z,3.01
2018-11-21T03:55:46.791Z,3.07
2018-11-21T03:56:27.327Z,3.11
2018-11-21T03:57:07.872Z,3.11
2018-11-21T03:57:48.429Z,3.07
2018-11-21T03:58:28.981Z,3.07
2018-11-21T03:59:09.537Z,3.21
2018-11-21T03:59:50.122Z,3.1
2018-11-21T04:00:30.699Z,3.05
2018-11-21T04:01:11.255Z,3.07
2018-11-21T04:01:51.819Z,3.05
2018-11-21T04:02:32.379Z,3.11
2018-11-21T04:03:12.934Z,3.05
2018-11-21T04:03:53.586Z,3.1
2018-11-21T04:04:34.123Z,3.11
2018-11-21T04:05:14.681Z,3.11
2018-11-21T04:05:55.244Z,3.1
2018-11-21T04:06:35.797Z,3.07
2018-11-21T04:07:16.339Z,3.08
2018-11-21T04:07:56.906Z,3.08
2018-11-21T04:08:42.455Z,3.08
2018-11-21T04:09:18.016Z,3.08
2018-11-21T04:09:58.627Z,3.13
2018-11-21T04:10:39.177Z,3.14
2018-11-21T04:11:19.746Z,3.07
2018-11-21T04:12:00.294Z,3.16
2018-11-21T04:12:40.849Z,3.07
2018-11-21T04:13:21.398Z,3.13
2018-11-21T04:14:01.946Z,3.18
2018-11-21T04:14:42.529Z,3.18
2018-11-21T04:15:23.078Z,3.11
2018-11-21T04:16:03.645Z,3.14
2018-11-21T04:16:44.209Z,3.07
2018-11-21T04:17:24.807Z,3.11
2018-11-21T04:18:05.351Z,3.07
2018-11-21T04:18:45.907Z,3.05
2018-11-21T04:19:26.451Z,3.04
2018-11-21T04:20:07.004Z,3.04
2018-11-21T04:20:47.564Z,3.08
2018-11-21T04:21:28.171Z,3.14
2018-11-21T04:22:08.760Z,3.1
2018-11-21T04:22:49.313Z,3.04
2018-11-21T04:23:29.892Z,3.08
2018-11-21T04:24:10.448Z,3.14
2018-11-21T04:24:51.005Z,3.11
2018-11-21T04:25:31.597Z,3.13
2018-11-21T04:26:12.154Z,3.18
2018-11-21T04:26:52.694Z,3.08
2018-11-21T04:27:33.258Z,3.07
2018-11-21T04:28:13.828Z,3.08
2018-11-21T04:28:54.396Z,3.01
2018-11-21T04:29:34.954Z,3.05
2018-11-21T04:30:15.526Z,3.19
2018-11-21T04:30:56.154Z,3.08
2018-11-21T04:31:36.681Z,3.05
2018-11-21T04:32:17.290Z,3.16
2018-11-21T04:32:57.845Z,3.07
2018-11-21T04:33:38.407Z,3.04
2018-11-21T04:34:18.961Z,3.14
2018-11-21T04:34:59.507Z,3.16
2018-11-21T04:35:40.035Z,3.04
2018-11-21T04:36:20.608Z,3.08
2018-11-21T04:37:01.172Z,3.01
2018-11-21T04:37:41.716Z,3.03
2018-11-21T04:38:22.265Z,3.07
2018-11-21T04:39:02.822Z,3.03
2018-11-21T04:39:43.369Z,3.07
2018-11-21T04:40:23.921Z,3.13
2018-11-21T04:41:04.518Z,3.13
2018-11-21T04:41:45.082Z,3.11
2018-11-21T04:42:25.645Z,3.11
2018-11-21T04:43:06.196Z,3.08
2018-11-21T04:43:46.755Z,3.05
2018-11-21T04:44:27.303Z,3.04
2018-11-21T04:45:07.864Z,3.11
2018-11-21T04:45:48.428Z,3.1
2018-11-21T04:46:29.009Z,3.1
2018-11-21T04:47:09.567Z,3.05
2018-11-21T04:47:50.140Z,3.08
2018-11-21T04:48:30.722Z,3.11
2018-11-21T04:49:11.271Z,3.05
2018-11-21T04:49:51.830Z,3.08
2018-11-21T04:50:32.388Z,3.1
2018-11-21T04:51:13.113Z,3.05
2018-11-21T04:51:53.618Z,3.1
2018-11-21T04:52:34.160Z,3.05
2018-11-21T04:53:14.707Z,3.1
2018-11-21T04:53:55.279Z,3.05
2018-11-21T04:54:35.850Z,3.05
2018-11-21T04:55:16.412Z,3.01
2018-11-21T04:55:56.974Z,3.08
2018-11-21T04:56:37.542Z,3.08
2018-11-21T04:57:18.362Z,3.01
2018-11-21T04:57:59.050Z,3.05
2018-11-21T04:58:39.622Z,3.1
2018-11-21T04:59:20.488Z,3.11
2018-11-21T05:00:01.183Z,3.1
2018-11-21T05:00:41.778Z,3.07
2018-11-21T05:01:22.330Z,3.1
2018-11-21T05:02:02.888Z,3.13
2018-11-21T05:02:43.436Z,3.14
2018-11-21T05:03:23.998Z,3.05
2018-11-21T05:04:04.553Z,3.21
2018-11-21T05:04:45.104Z,3.19
2018-11-21T05:05:25.648Z,3.05
2018-11-21T05:06:06.207Z,3.04
2018-11-21T05:06:46.765Z,3.05
2018-11-21T05:07:27.323Z,3.11
2018-11-21T05:08:07.884Z,3.11
2018-11-21T05:08:48.477Z,3.11
2018-11-21T05:09:29.043Z,3.08
2018-11-21T05:10:09.611Z,3.05
2018-11-21T05:10:50.154Z,3.07
2018-11-21T05:11:30.704Z,3.08
2018-11-21T05:12:11.263Z,3.07
2018-11-21T05:12:51.834Z,3.1
2018-11-21T05:13:32.393Z,3.07
2018-11-21T05:14:12.952Z,3.1
2018-11-21T05:14:53.517Z,3.11
2018-11-21T05:15:34.073Z,3.07
2018-11-21T05:16:14.643Z,3.05
2018-11-21T05:16:55.209Z,3.1
2018-11-21T05:17:35.783Z,3.08
2018-11-21T05:18:16.332Z,3.08
2018-11-21T05:18:56.902Z,3.05
2018-11-21T05:19:37.432Z,3.07
2018-11-21T05:20:17.988Z,3.07
2018-11-21T05:20:58.599Z,3.07
2018-11-21T05:21:39.133Z,3.07
2018-11-21T05:22:19.690Z,3.07
2018-11-21T05:23:00.290Z,3.1
2018-11-21T05:23:40.840Z,3.05
2018-11-21T05:24:21.407Z,3.03
2018-11-21T05:25:01.966Z,3.01
2018-11-21T05:25:42.514Z,3.05
2018-11-21T05:26:23.062Z,2.95
2018-11-21T05:27:03.620Z,2.95
2018-11-21T05:27:44.207Z,2.93
2018-11-21T05:28:24.780Z,2.95
2018-11-21T05:29:05.336Z,2.87
2018-11-21T05:29:45.901Z,2.87
2018-11-21T05:30:26.455Z,2.86
2018-11-21T05:31:07.020Z,2.89
2018-11-21T05:31:47.569Z,2.98
2018-11-21T05:32:28.123Z,2.87
2018-11-21T05:33:08.699Z,2.97
2018-11-21T05:33:49.218Z,2.97
2018-11-21T05:34:29.766Z,2.98
2018-11-21T05:35:10.330Z,3.08
2018-11-21T05:35:50.921Z,3.04
2018-11-21T05:36:31.487Z,3.03
2018-11-21T05:37:12.083Z,3
2018-11-21T05:37:52.638Z,3.03
2018-11-21T05:38:33.193Z,3.05
2018-11-21T05:39:13.748Z,3.14
2018-11-21T05:39:54.308Z,3.11
2018-11-21T05:40:34.882Z,3.08
2018-11-21T05:41:15.432Z,3.08
2018-11-21T05:41:55.991Z,3.08
2018-11-21T05:42:36.541Z,3.08
2018-11-21T05:43:17.105Z,3.05
2018-11-21T05:43:57.673Z,3.13
2018-11-21T05:44:38.226Z,3.04
2018-11-21T05:45:18.805Z,3.08
2018-11-21T05:45:59.358Z,3.04
2018-11-21T05:46:39.923Z,3.1
2018-11-21T05:47:20.470Z,3.03
2018-11-21T05:48:01.030Z,3.1
2018-11-21T05:48:41.629Z,3.03
2018-11-21T05:49:22.242Z,3.11
2018-11-21T05:50:02.764Z,3.07
2018-11-21T05:50:43.321Z,3.07
2018-11-21T05:51:24.507Z,3.1
2018-11-21T05:52:05.605Z,3.05
2018-11-21T05:52:46.455Z,3.03
2018-11-21T05:53:27.589Z,3.07
2018-11-21T05:54:08.322Z,3.11
2018-11-21T05:54:48.926Z,3.07
2018-11-21T05:55:29.491Z,3.08
2018-11-21T05:56:10.055Z,2.98
2018-11-21T05:56:50.608Z,3.13
2018-11-21T05:57:31.189Z,3.1
2018-11-21T05:58:11.794Z,3.07
2018-11-21T05:58:52.350Z,3.07
2018-11-21T05:59:32.896Z,3.04
2018-11-21T06:00:13.484Z,3.11
2018-11-21T06:00:54.605Z,3.1
2018-11-21T06:01:35.305Z,3.08
2018-11-21T06:02:15.864Z,3.11
2018-11-21T06:02:56.432Z,3.03
2018-11-21T06:03:37.000Z,3.07
2018-11-21T06:04:17.600Z,3.05
2018-11-21T06:04:58.207Z,3.05
2018-11-21T06:05:39.193Z,3.11
2018-11-21T06:06:19.763Z,3.13
2018-11-21T06:07:00.329Z,3.1
2018-11-21T06:07:40.875Z,3.08
2018-11-21T06:08:21.472Z,3.1
2018-11-21T06:09:02.074Z,3.08
2018-11-21T06:09:42.663Z,3.08
2018-11-21T06:10:23.236Z,3.08
2018-11-21T06:11:03.802Z,3.03
2018-11-21T06:11:44.369Z,3.1
2018-11-21T06:12:24.917Z,3.13
2018-11-21T06:13:05.476Z,3.08
2018-11-21T06:13:46.065Z,3.08
2018-11-21T06:14:26.617Z,3.03
2018-11-21T06:15:07.205Z,3.04
2018-11-21T06:15:47.774Z,3.05
2018-11-21T06:16:28.327Z,3.03
2018-11-21T06:17:08.880Z,3.07
2018-11-21T06:17:49.453Z,3.07
2018-11-21T06:18:30.021Z,3.11
2018-11-21T06:19:10.564Z,3.01
2018-11-21T06:19:51.126Z,3.05
2018-11-21T06:20:31.678Z,3.07
2018-11-21T06:21:12.221Z,3.13
2018-11-21T06:21:52.781Z,3.07
2018-11-21T06:22:33.364Z,3.03
2018-11-21T06:23:13.932Z,3.07
2018-11-21T06:23:54.515Z,3.03
2018-11-21T06:24:35.075Z,2.98
2018-11-21T06:25:15.674Z,3.03
2018-11-21T06:25:56.229Z,3.08
2018-11-21T06:26:36.786Z,3.11
2018-11-21T06:27:17.338Z,3.11
2018-11-21T06:27:57.903Z,3.11
2018-11-21T06:28:38.451Z,3.11
2018-11-21T06:29:19.025Z,3.07
2018-11-21T06:29:59.592Z,3.1
2018-11-21T06:30:40.148Z,3.07
2018-11-21T06:31:20.708Z,3.1
2018-11-21T06:32:01.258Z,3.11
2018-11-21T06:32:41.819Z,3.08
2018-11-21T06:33:22.368Z,3.1
2018-11-21T06:34:02.933Z,3.08
2018-11-21T06:34:43.490Z,3.08
2018-11-21T06:35:24.052Z,3.07
2018-11-21T06:36:04.628Z,3.04
2018-11-21T06:36:45.202Z,3.03
2018-11-21T06:37:25.782Z,3.07
2018-11-21T06:38:06.344Z,3.11
2018-11-21T06:38:46.903Z,3.14
2018-11-21T06:39:27.542Z,3.1
2018-11-21T06:40:08.105Z,3.05
2018-11-21T06:40:48.655Z,3.13
2018-11-21T06:41:29.206Z,3.16
2018-11-21T06:42:09.785Z,3.11
2018-11-21T06:42:50.349Z,3.18
2018-11-21T06:43:30.918Z,3.07
2018-11-21T06:44:11.462Z,3.18
2018-11-21T06:44:52.037Z,3.14
2018-11-21T06:45:32.612Z,3.21
2018-11-21T06:46:13.201Z,3.11
2018-11-21T06:46:53.766Z,3.16
2018-11-21T06:47:34.320Z,3.19
2018-11-21T06:48:14.900Z,3.28
2018-11-21T06:48:55.459Z,3.5
2018-11-21T06:49:36.044Z,3.76
2018-11-21T06:50:16.712Z,3.99
2018-11-21T06:50:57.297Z,4.16
2018-11-21T06:51:37.881Z,4.19
2018-11-21T06:52:22.172Z,4.26
2018-11-21T06:52:59.016Z,4.22
2018-11-21T06:53:39.552Z,4.26
2018-11-21T06:54:20.122Z,4.22
2018-11-21T06:55:00.679Z,4.3
2018-11-21T06:55:41.224Z,4.41
2018-11-21T06:56:21.784Z,4.45
2018-11-21T06:57:02.385Z,4.55
2018-11-21T06:57:42.959Z,4.53
2018-11-21T06:58:23.510Z,4.53
2018-11-21T06:59:04.058Z,4.62
2018-11-21T06:59:44.626Z,4.68
2018-11-21T07:00:25.161Z,4.67
2018-11-21T07:01:05.761Z,4.53
2018-11-21T07:01:47.869Z,4.53
2018-11-21T07:02:28.443Z,4.42
2018-11-21T07:03:09.013Z,4.32
2018-11-21T07:03:49.605Z,4.28
2018-11-21T07:04:30.200Z,4.19
2018-11-21T07:05:10.756Z,4.06
2018-11-21T07:05:51.323Z,4.05
2018-11-21T07:06:31.924Z,3.88
2018-11-21T07:07:12.495Z,3.87
2018-11-21T07:07:53.093Z,3.86
2018-11-21T07:08:33.663Z,3.8
2018-11-21T07:09:14.202Z,3.77
2018-11-21T07:09:54.810Z,3.81
2018-11-21T07:10:35.360Z,3.76
2018-11-21T07:11:15.960Z,3.68
2018-11-21T07:11:56.505Z,3.65
2018-11-21T07:12:37.081Z,3.59
2018-11-21T07:13:17.679Z,3.63
2018-11-21T07:13:58.240Z,3.63
2018-11-21T07:14:38.819Z,3.55
2018-11-21T07:15:19.376Z,3.55
2018-11-21T07:15:59.964Z,3.55
2018-11-21T07:16:40.545Z,3.5
2018-11-21T07:17:21.096Z,3.53
2018-11-21T07:18:01.683Z,3.59
2018-11-21T07:18:42.297Z,3.48
2018-11-21T07:19:22.840Z,3.69
2018-11-21T07:20:03.497Z,3.5
2018-11-21T07:20:44.231Z,3.55
2018-11-21T07:21:24.786Z,3.5
2018-11-21T07:22:05.328Z,3.53
2018-11-21T07:22:45.893Z,3.5
2018-11-21T07:23:26.625Z,3.4
2018-11-21T07:24:07.251Z,3.4
2018-11-21T07:24:47.842Z,3.41
2018-11-21T07:25:28.407Z,3.36
2018-11-21T07:26:09.089Z,3.4
2018-11-21T07:26:49.733Z,3.32
2018-11-21T07:27:30.378Z,3.36
2018-11-21T07:28:13.034Z,3.4
2018-11-21T07:28:53.042Z,3.34
2018-11-21T07:29:34.581Z,3.36
2018-11-21T07:30:14.881Z,3.42
2018-11-21T07:30:55.444Z,3.41
2018-11-21T07:31:35.998Z,3.41
2018-11-21T07:32:16.556Z,3.41
2018-11-21T07:32:57.118Z,3.42
2018-11-21T07:33:37.791Z,3.4
2018-11-21T07:34:18.362Z,3.42
2018-11-21T07:34:58.939Z,3.44
2018-11-21T07:35:39.562Z,3.37
2018-11-21T07:36:20.129Z,3.41
2018-11-21T07:37:00.720Z,3.4
2018-11-21T07:37:41.326Z,3.37
2018-11-21T07:38:21.936Z,3.36
2018-11-21T07:39:02.503Z,3.34
2018-11-21T07:39:43.051Z,3.41
2018-11-21T07:40:23.593Z,3.36
2018-11-21T07:41:04.201Z,3.4
2018-11-21T07:41:44.770Z,3.42
2018-11-21T07:42:25.347Z,3.4
2018-11-21T07:43:05.924Z,3.36
2018-11-21T07:43:46.538Z,3.41
2018-11-21T07:44:27.137Z,3.4
2018-11-21T07:45:07.777Z,3.44
2018-11-21T07:45:48.341Z,3.37
2018-11-21T07:46:28.959Z,3.31
2018-11-21T07:47:09.513Z,3.32
2018-11-21T07:47:50.171Z,3.28
2018-11-21T07:48:30.733Z,3.32
2018-11-21T07:49:11.287Z,3.31
2018-11-21T07:49:52.032Z,3.41
2018-11-21T07:50:32.619Z,3.36
2018-11-21T07:51:13.211Z,3.41
2018-11-21T07:51:53.919Z,3.25
2018-11-21T07:52:34.469Z,3.29
2018-11-21T07:53:15.089Z,3.36
2018-11-21T07:53:55.615Z,3.36
2018-11-21T07:54:36.228Z,3.29
2018-11-21T07:55:17.232Z,3.31
2018-11-21T07:55:58.681Z,3.31
2018-11-21T07:56:39.265Z,3.23
2018-11-21T07:57:19.861Z,3.26
2018-11-21T07:58:00.577Z,3.25
2018-11-21T07:58:41.179Z,3.23
2018-11-21T07:59:21.767Z,3.07
2018-11-21T08:00:02.365Z,3.16
2018-11-21T08:00:43.364Z,3.19
2018-11-21T08:01:24.620Z,3.14
2018-11-21T08:02:05.820Z,3.13
2018-11-21T08:02:46.445Z,3.18
2018-11-21T08:03:27.022Z,3.11
2018-11-21T08:04:07.639Z,3.18
2018-11-21T08:04:48.200Z,3.16
2018-11-21T08:05:28.785Z,3.25
2018-11-21T08:06:09.351Z,3.25
2018-11-21T08:06:49.933Z,3.19
2018-11-21T08:07:30.488Z,3.23
2018-11-21T08:08:11.085Z,3.23
2018-11-21T08:08:52.194Z,3.21
2018-11-21T08:09:32.780Z,3.14
2018-11-21T08:10:13.336Z,3.16
2018-11-21T08:10:53.895Z,3.19
2018-11-21T08:11:34.459Z,3.11
2018-11-21T08:12:15.027Z,3.16
2018-11-21T08:12:55.619Z,3.1
2018-11-21T08:13:36.176Z,3.04
2018-11-21T08:14:16.775Z,3.1
2018-11-21T08:14:57.335Z,3.14
2018-11-21T08:15:37.880Z,3.1
2018-11-21T08:16:18.453Z,3.11
2018-11-21T08:16:59.068Z,3.05
2018-11-21T08:17:39.652Z,3.16
2018-11-21T08:18:20.205Z,3.07
2018-11-21T08:19:00.772Z,3.04
2018-11-21T08:19:41.365Z,3.22
2018-11-21T08:20:21.934Z,3.1
2018-11-21T08:21:02.475Z,3.16
2018-11-21T08:21:43.028Z,3.18
2018-11-21T08:22:23.625Z,3.13
2018-11-21T08:23:04.246Z,3.16
2018-11-21T08:23:44.782Z,3.16
2018-11-21T08:24:25.380Z,3.19
2018-11-21T08:25:05.939Z,3.19
2018-11-21T08:25:46.544Z,3.21
2018-11-21T08:26:27.083Z,3.21
2018-11-21T08:27:07.643Z,3.19
2018-11-21T08:27:48.193Z,3.19
2018-11-21T08:28:28.741Z,3.19
2018-11-21T08:29:09.310Z,3.19
2018-11-21T08:29:49.854Z,3.23
2018-11-21T08:30:30.403Z,3.25
2018-11-21T08:31:11.011Z,3.26
2018-11-21T08:31:51.599Z,3.26
2018-11-21T08:32:32.166Z,3.28
2018-11-21T08:33:12.725Z,3.26
2018-11-21T08:33:53.287Z,3.22
2018-11-21T08:34:33.861Z,3.29
2018-11-21T08:35:14.410Z,3.25
2018-11-21T08:35:54.988Z,3.25
2018-11-21T08:36:35.551Z,3.28
2018-11-21T08:37:16.100Z,3.28
2018-11-21T08:37:56.657Z,3.23
2018-11-21T08:38:37.221Z,3.22
2018-11-21T08:39:17.766Z,3.28
2018-11-21T08:39:58.360Z,3.37
2018-11-21T08:40:38.946Z,3.28
2018-11-21T08:41:19.510Z,3.34
2018-11-21T08:42:00.095Z,3.32
2018-11-21T08:42:40.729Z,3.29
2018-11-21T08:43:21.250Z,3.26
2018-11-21T08:44:01.811Z,3.29
2018-11-21T08:44:42.362Z,3.42
2018-11-21T08:45:22.912Z,3.31
2018-11-21T08:46:03.470Z,3.28
2018-11-21T08:46:44.035Z,3.34
2018-11-21T08:47:24.591Z,3.26
2018-11-21T08:48:05.193Z,3.29
2018-11-21T08:48:45.775Z,3.31
2018-11-21T08:49:26.330Z,3.25
2018-11-21T08:50:06.902Z,3.32
2018-11-21T08:50:47.473Z,3.26
2018-11-21T08:51:28.101Z,3.37
2018-11-21T08:52:08.734Z,3.37
2018-11-21T08:52:49.316Z,3.28
2018-11-21T08:53:29.881Z,3.29
2018-11-21T08:54:10.483Z,3.25
2018-11-21T08:54:51.039Z,3.26
2018-11-21T08:55:31.625Z,3.26
2018-11-21T08:56:12.192Z,3.28
2018-11-21T08:56:52.793Z,3.31
2018-11-21T08:57:33.355Z,3.26
2018-11-21T08:58:13.928Z,3.23
2018-11-21T08:58:54.540Z,3.23
2018-11-21T08:59:35.165Z,3.25
2018-11-21T09:00:15.746Z,3.25
2018-11-21T09:00:56.320Z,3.4
2018-11-21T09:01:36.841Z,3.31
2018-11-21T09:02:17.407Z,3.25